Time;durP1;ratioP1;P1;durP2;ratioP2;P2;SDS_P1;SDS_P2;PMS_P1;PMS_P2;Temp;Humidity;BMP_temperature;BMP_pressure;BME280_temperature;BME280_humidity;BME280_pressure;Samples;Min_cycle;Max_cycle;Signal;HPM_P1;HPM_P2
2023/10/01 00:02:05;;;;;;;12.23;7.57;;;12.80;99.90;;;;;;5052140;28;20025;-50
2023/10/01 00:04:32;;;;;;;13.05;6.93;;;12.80;99.90;;;;;;5051745;28;20057;-48
2023/10/01 00:06:59;;;;;;;72.07;49.05;;;12.80;99.90;;;;;;5051909;28;20035;-50
2023/10/01 00:09:24;;;;;;;75.75;51.47;;;12.80;99.90;;;;;;5051811;28;20052;-49
2023/10/01 00:11:50;;;;;;;50.47;33.35;;;12.90;99.90;;;;;;5051892;28;20465;-46
2023/10/01 00:14:16;;;;;;;14.25;9.57;;;12.80;99.90;;;;;;5051761;28;20025;-47
2023/10/01 00:16:42;;;;;;;13.65;7.05;;;12.90;99.90;;;;;;5052012;28;20027;-46
2023/10/01 00:19:10;;;;;;;9.52;6.32;;;12.80;99.90;;;;;;5051913;28;20075;-51
2023/10/01 00:21:36;;;;;;;12.25;6.90;;;12.80;99.90;;;;;;5051984;28;20017;-46
2023/10/01 00:24:01;;;;;;;12.93;6.90;;;12.80;99.90;;;;;;5051500;28;20017;-48
2023/10/01 00:26:27;;;;;;;10.52;6.93;;;12.70;99.90;;;;;;5051180;28;20033;-45
2023/10/01 00:28:52;;;;;;;11.13;6.68;;;12.70;99.90;;;;;;5051861;28;20636;-51
2023/10/01 00:31:19;;;;;;;9.80;7.03;;;12.70;99.90;;;;;;5051995;28;20048;-46
2023/10/01 00:33:47;;;;;;;11.88;6.50;;;12.60;99.90;;;;;;5051903;28;20536;-46
2023/10/01 00:36:13;;;;;;;13.20;6.88;;;12.60;99.90;;;;;;5051208;28;20025;-47
2023/10/01 00:38:38;;;;;;;8.95;6.65;;;12.50;99.90;;;;;;5051503;28;20028;-48
2023/10/01 00:41:04;;;;;;;13.60;7.78;;;12.40;99.90;;;;;;5051738;28;20511;-46
2023/10/01 00:43:31;;;;;;;13.05;7.70;;;12.40;99.90;;;;;;5051395;28;20107;-46
2023/10/01 00:45:56;;;;;;;9.52;7.20;;;12.30;99.90;;;;;;5051411;28;20033;-51
2023/10/01 00:48:22;;;;;;;11.30;7.10;;;12.20;99.90;;;;;;5051455;28;20396;-49
2023/10/01 00:50:50;;;;;;;8.80;7.25;;;12.20;99.90;;;;;;5051363;28;20021;-47
2023/10/01 00:53:15;;;;;;;12.82;6.72;;;12.20;99.90;;;;;;5051209;28;20112;-49
2023/10/01 00:55:41;;;;;;;11.30;7.30;;;12.20;99.90;;;;;;5051331;28;20096;-47
2023/10/01 00:58:07;;;;;;;10.40;7.68;;;12.20;99.90;;;;;;5051431;28;20036;-46
2023/10/01 01:00:32;;;;;;;12.48;6.65;;;12.20;99.90;;;;;;5051570;28;20036;-47
2023/10/01 01:03:06;;;;;;;11.10;7.20;;;12.30;99.90;;;;;;5051311;28;20060;-50
2023/10/01 01:05:37;;;;;;;12.00;6.15;;;12.30;99.90;;;;;;5050881;28;20036;-47
2023/10/01 01:08:28;;;;;;;11.35;6.28;;;12.20;99.90;;;;;;5051248;28;20025;-46
2023/10/01 01:10:54;;;;;;;10.63;5.95;;;12.10;99.90;;;;;;5051311;28;20180;-49
2023/10/01 01:13:23;;;;;;;11.05;6.57;;;12.00;99.90;;;;;;5052888;28;20044;-49
2023/10/01 01:15:51;;;;;;;10.45;5.97;;;12.00;99.90;;;;;;5055072;28;20017;-50
2023/10/01 01:18:20;;;;;;;7.60;5.85;;;12.00;99.90;;;;;;5055572;28;20032;-46
2023/10/01 01:20:47;;;;;;;7.03;5.45;;;11.90;99.90;;;;;;5053864;28;20112;-45
2023/10/01 01:23:17;;;;;;;10.43;6.32;;;11.90;99.90;;;;;;5054799;28;20127;-44
2023/10/01 01:25:44;;;;;;;8.45;5.43;;;11.90;99.90;;;;;;5054671;28;20102;-46
2023/10/01 01:28:15;;;;;;;7.88;5.80;;;11.90;99.90;;;;;;5055046;28;20388;-46
2023/10/01 01:30:47;;;;;;;10.15;6.10;;;11.90;99.90;;;;;;5055074;28;20028;-46
2023/10/01 01:33:21;;;;;;;10.13;5.43;;;11.90;99.90;;;;;;5054693;28;20180;-46
2023/10/01 01:35:50;;;;;;;7.47;5.32;;;11.90;99.90;;;;;;5054450;28;20047;-49
2023/10/01 01:38:16;;;;;;;13.75;5.82;;;11.90;99.90;;;;;;5054816;28;20021;-48
2023/10/01 01:40:42;;;;;;;14.15;7.00;;;11.90;99.90;;;;;;5054866;28;20102;-47
2023/10/01 01:43:23;;;;;;;10.75;6.05;;;11.90;99.90;;;;;;5055017;28;20488;-48
2023/10/01 01:45:54;;;;;;;10.20;6.03;;;11.90;99.90;;;;;;5055833;28;20053;-48
2023/10/01 01:48:30;;;;;;;11.07;6.20;;;11.90;99.90;;;;;;5055436;28;20040;-47
2023/10/01 01:50:58;;;;;;;11.30;5.85;;;11.90;99.90;;;;;;5054472;28;20021;-46
2023/10/01 01:53:36;;;;;;;14.07;5.70;;;11.90;99.90;;;;;;5055126;28;20540;-48
2023/10/01 01:56:13;;;;;;;9.70;5.22;;;11.80;99.90;;;;;;5054276;28;20037;-47
2023/10/01 01:58:40;;;;;;;8.30;5.53;;;11.70;99.90;;;;;;5054483;28;20032;-46
2023/10/01 02:01:17;;;;;;;11.20;7.35;;;11.60;99.90;;;;;;5054557;28;20377;-49
2023/10/01 02:03:46;;;;;;;8.90;6.40;;;11.50;99.90;;;;;;5054480;28;20025;-46
2023/10/01 02:06:13;;;;;;;13.80;6.88;;;11.50;99.90;;;;;;5054070;28;20546;-49
2023/10/01 02:08:54;;;;;;;7.55;5.50;;;11.40;99.90;;;;;;5054092;28;20041;-51
2023/10/01 02:11:20;;;;;;;8.85;5.68;;;11.40;99.90;;;;;;5054152;28;20484;-46
2023/10/01 02:13:50;;;;;;;8.85;5.38;;;11.50;99.90;;;;;;5053866;28;20104;-51
2023/10/01 02:19:11;;;;;;;12.70;5.55;;;11.40;99.90;;;;;;5054231;28;20645;-46
2023/10/01 02:21:47;;;;;;;10.68;5.32;;;11.40;99.90;;;;;;5053873;28;20033;-46
2023/10/01 02:24:19;;;;;;;7.75;5.55;;;11.40;99.90;;;;;;5052536;28;20017;-50
2023/10/01 02:26:46;;;;;;;10.63;6.00;;;11.40;99.90;;;;;;5053880;28;20079;-47
2023/10/01 02:29:13;;;;;;;6.95;5.22;;;11.30;99.90;;;;;;5053901;28;20116;-46
2023/10/01 02:31:47;;;;;;;7.65;5.72;;;11.30;99.90;;;;;;5053922;28;20021;-47
2023/10/01 02:34:17;;;;;;;7.53;5.95;;;11.30;99.90;;;;;;5053810;28;20028;-46
2023/10/01 02:36:43;;;;;;;9.02;6.22;;;11.30;99.90;;;;;;5053689;28;20509;-46
2023/10/01 02:39:21;;;;;;;9.90;6.25;;;11.30;99.90;;;;;;5053677;28;20052;-46
2023/10/01 02:42:09;;;;;;;6.38;5.75;;;11.30;99.90;;;;;;5053878;28;20025;-46
2023/10/01 02:44:35;;;;;;;7.97;6.00;;;11.30;99.90;;;;;;5053727;28;20392;-46
2023/10/01 02:47:03;;;;;;;9.77;6.00;;;11.40;99.90;;;;;;5053460;28;20036;-46
2023/10/01 02:49:32;;;;;;;12.63;6.85;;;11.30;99.90;;;;;;5053602;28;20018;-48
2023/10/01 02:51:59;;;;;;;9.73;6.53;;;11.40;99.90;;;;;;5053911;28;20036;-47
2023/10/01 02:54:26;;;;;;;10.82;7.05;;;11.30;99.90;;;;;;5053605;28;20392;-45
2023/10/01 02:57:34;;;;;;;9.48;5.68;;;11.30;99.90;;;;;;5053588;28;20021;-47
2023/10/01 03:02:25;;;;;;;7.50;5.95;;;11.30;99.90;;;;;;5053552;28;20553;-48
2023/10/01 03:04:51;;;;;;;9.20;6.68;;;11.30;99.90;;;;;;5052816;28;20056;-45
2023/10/01 03:07:17;;;;;;;7.90;5.60;;;11.30;99.90;;;;;;5053210;28;20021;-49
2023/10/01 03:09:44;;;;;;;11.50;6.53;;;11.30;99.90;;;;;;5052971;28;20032;-51
2023/10/01 03:17:45;;;;;;;8.93;5.70;;;11.30;99.90;;;;;;5052936;28;20029;-47
2023/10/01 03:23:05;;;;;;;7.72;5.47;;;11.20;99.90;;;;;;5051682;28;20395;-46
2023/10/01 03:25:42;;;;;;;7.03;5.07;;;11.20;99.90;;;;;;5052626;28;20033;-46
2023/10/01 03:28:14;;;;;;;7.22;5.50;;;11.20;99.90;;;;;;5052930;28;20063;-48
2023/10/01 03:30:46;;;;;;;7.95;6.10;;;11.10;99.90;;;;;;5052806;28;20029;-46
2023/10/01 03:33:15;;;;;;;6.45;5.38;;;11.00;99.90;;;;;;5052837;28;20074;-46
2023/10/01 03:35:47;;;;;;;9.20;6.35;;;10.90;99.90;;;;;;5052117;28;20021;-50
2023/10/01 03:38:14;;;;;;;7.63;5.07;;;10.80;99.90;;;;;;5053669;28;20036;-46
2023/10/01 03:43:32;;;;;;;7.65;5.97;;;10.90;99.90;;;;;;5052672;28;20036;-50
2023/10/01 03:46:15;;;;;;;9.02;6.03;;;10.90;99.90;;;;;;5052235;28;20112;-46
2023/10/01 03:51:52;;;;;;;6.88;5.75;;;10.90;99.90;;;;;;5052978;28;20495;-52
2023/10/01 03:57:11;;;;;;;8.77;6.40;;;11.00;99.90;;;;;;5052284;28;20035;-48
2023/10/01 03:59:37;;;;;;;10.95;7.10;;;11.30;99.90;;;;;;5052290;28;20068;-46
2023/10/01 04:02:21;;;;;;;14.05;7.60;;;11.10;99.90;;;;;;5052350;28;20048;-46
2023/10/01 04:04:57;;;;;;;9.55;6.43;;;11.00;99.90;;;;;;5051859;28;20036;-48
2023/10/01 04:07:26;;;;;;;8.43;6.07;;;11.00;99.90;;;;;;5052331;28;20057;-46
2023/10/01 04:09:52;;;;;;;9.32;6.70;;;11.00;99.90;;;;;;5052662;28;20503;-46
2023/10/01 04:12:18;;;;;;;7.57;6.45;;;10.90;99.90;;;;;;5052547;28;20109;-46
2023/10/01 04:14:52;;;;;;;11.20;7.15;;;11.00;99.90;;;;;;5051873;28;20053;-46
2023/10/01 04:17:25;;;;;;;7.88;5.80;;;10.90;99.90;;;;;;5051978;28;20055;-48
2023/10/01 04:19:57;;;;;;;7.18;5.40;;;10.90;99.90;;;;;;5051744;28;20060;-51
2023/10/01 04:22:25;;;;;;;9.98;5.47;;;10.90;99.90;;;;;;5051654;28;20029;-46
2023/10/01 04:25:00;;;;;;;10.48;6.82;;;10.80;99.90;;;;;;5051310;28;20028;-48
2023/10/01 04:27:34;;;;;;;7.93;5.20;;;10.70;99.90;;;;;;5051840;28;20028;-46
2023/10/01 04:30:01;;;;;;;10.05;5.35;;;10.60;99.90;;;;;;5051751;28;20104;-48
2023/10/01 04:32:27;;;;;;;10.73;5.53;;;10.50;99.90;;;;;;5051635;28;20405;-49
2023/10/01 04:35:01;;;;;;;14.98;6.25;;;10.50;99.90;;;;;;5050888;28;20028;-50
2023/10/01 04:37:41;;;;;;;8.43;5.18;;;10.50;99.90;;;;;;5051654;28;20195;-46
2023/10/01 04:43:01;;;;;;;8.23;5.22;;;10.50;99.90;;;;;;5051759;28;20037;-46
2023/10/01 04:45:36;;;;;;;7.22;5.15;;;10.60;99.90;;;;;;5051483;28;20024;-47
2023/10/01 04:48:08;;;;;;;5.47;4.80;;;10.60;99.90;;;;;;5051161;28;20021;-49
2023/10/01 04:50:37;;;;;;;7.78;4.82;;;10.60;99.90;;;;;;5051582;28;20534;-46
2023/10/01 04:53:07;;;;;;;7.43;4.70;;;10.60;99.90;;;;;;5051502;28;20365;-52
2023/10/01 04:55:40;;;;;;;10.55;5.60;;;10.60;99.90;;;;;;5051485;28;20109;-46
2023/10/01 04:58:12;;;;;;;11.63;5.90;;;10.60;99.90;;;;;;5051500;28;20057;-51
2023/10/01 05:00:41;;;;;;;9.68;5.18;;;10.60;99.90;;;;;;5051458;28;20021;-49
2023/10/01 05:03:08;;;;;;;8.68;4.60;;;10.60;99.90;;;;;;5051218;28;20020;-46
2023/10/01 05:05:37;;;;;;;10.30;5.35;;;10.60;99.90;;;;;;5050951;28;20067;-43
2023/10/01 05:08:07;;;;;;;7.80;4.88;;;10.60;99.90;;;;;;5051362;28;20049;-49
2023/10/01 05:10:50;;;;;;;8.10;4.68;;;10.60;99.90;;;;;;5051812;28;20018;-49
2023/10/01 05:13:19;;;;;;;8.18;5.28;;;10.60;99.90;;;;;;5051242;28;20063;-46
2023/10/01 05:15:49;;;;;;;8.85;5.22;;;10.60;99.90;;;;;;5051046;28;20017;-45
2023/10/01 05:18:17;;;;;;;6.55;4.50;;;10.60;99.90;;;;;;5051216;28;20021;-47
2023/10/01 05:20:44;;;;;;;4.65;4.18;;;10.60;99.90;;;;;;5051511;28;20108;-45
2023/10/01 05:23:09;;;;;;;7.55;5.07;;;10.60;99.90;;;;;;5051366;28;20435;-46
2023/10/01 05:25:34;;;;;;;8.98;5.22;;;10.60;99.90;;;;;;5050906;28;20166;-49
2023/10/01 05:28:03;;;;;;;8.23;5.25;;;10.60;99.90;;;;;;5051245;28;20028;-48
2023/10/01 05:30:34;;;;;;;7.10;5.55;;;10.60;99.90;;;;;;5051208;28;20028;-45
2023/10/01 05:33:01;;;;;;;9.85;5.32;;;10.60;99.90;;;;;;5050960;28;20114;-47
2023/10/01 05:35:28;;;;;;;6.88;5.13;;;10.60;99.90;;;;;;5050466;28;20030;-46
2023/10/01 05:37:54;;;;;;;8.52;5.38;;;10.60;99.90;;;;;;5051088;28;20071;-45
2023/10/01 05:40:19;;;;;;;7.25;5.03;;;10.60;99.90;;;;;;5051134;28;20511;-49
2023/10/01 05:42:49;;;;;;;6.40;4.78;;;10.60;99.90;;;;;;5049406;28;20432;-47
2023/10/01 05:45:18;;;;;;;5.60;4.80;;;10.70;99.90;;;;;;5050614;28;20028;-47
2023/10/01 05:47:54;;;;;;;9.23;5.40;;;10.70;99.90;;;;;;5050851;28;20408;-46
2023/10/01 05:50:22;;;;;;;14.77;5.68;;;10.80;99.90;;;;;;5050870;28;20021;-48
2023/10/01 05:52:50;;;;;;;8.00;5.85;;;10.80;99.90;;;;;;5051045;28;20575;-46
2023/10/01 05:55:16;;;;;;;7.88;5.30;;;10.90;99.90;;;;;;5050378;28;20032;-47
2023/10/01 05:57:42;;;;;;;7.13;5.30;;;10.90;99.90;;;;;;5050751;28;20017;-46
2023/10/01 06:00:17;;;;;;;6.47;4.68;;;11.00;99.90;;;;;;5054433;28;20028;-49
2023/10/01 06:03:00;;;;;;;11.73;5.65;;;11.00;99.90;;;;;;5054335;28;20029;-47
2023/10/01 06:08:25;;;;;;;10.93;4.97;;;11.00;99.90;;;;;;5052861;28;20157;-47
2023/10/01 06:11:38;;;;;;;7.03;5.30;;;11.00;99.90;;;;;;5054243;28;20052;-52
2023/10/01 06:13:54;;;;;;;6.13;4.95;;;11.10;99.90;;;;;;5053811;28;20087;-44
2023/10/01 06:16:24;;;;;;;6.93;5.43;;;11.10;99.90;;;;;;5054124;28;20025;-48
2023/10/01 06:18:57;;;;;;;6.97;5.05;;;11.20;99.90;;;;;;5054354;28;20415;-51
2023/10/01 06:21:25;;;;;;;8.25;4.53;;;11.20;99.90;;;;;;5054369;28;20070;-47
2023/10/01 06:23:51;;;;;;;8.13;4.75;;;11.30;99.90;;;;;;5053856;28;20033;-49
2023/10/01 06:26:37;;;;;;;7.10;5.15;;;11.40;99.90;;;;;;5053630;28;20060;-51
2023/10/01 06:29:04;;;;;;;6.40;4.60;;;11.50;99.90;;;;;;5053890;28;20139;-48
2023/10/01 06:31:47;;;;;;;10.95;5.97;;;11.70;99.90;;;;;;5053678;28;20040;-50
2023/10/01 06:34:23;;;;;;;15.50;8.73;;;11.90;99.90;;;;;;5053347;28;20641;-46
2023/10/01 06:36:58;;;;;;;9.07;6.43;;;12.20;99.90;;;;;;5053758;28;20020;-47
2023/10/01 06:39:40;;;;;;;11.80;6.50;;;12.40;99.90;;;;;;5053744;28;20049;-49
2023/10/01 06:42:18;;;;;;;8.80;5.80;;;12.80;99.90;;;;;;5053819;28;20167;-50
2023/10/01 06:44:45;;;;;;;5.65;4.40;;;13.40;99.90;;;;;;5053235;28;20496;-50
2023/10/01 06:47:17;;;;;;;6.93;5.45;;;14.20;99.90;;;;;;5053293;28;20029;-47
2023/10/01 06:52:32;;;;;;;8.13;4.93;;;15.70;99.90;;;;;;5054356;28;20035;-47
2023/10/01 06:55:00;;;;;;;7.78;5.47;;;16.60;99.90;;;;;;5053071;28;20059;-48
2023/10/01 06:57:38;;;;;;;7.88;4.93;;;17.10;99.90;;;;;;5053367;28;20021;-47
2023/10/01 07:00:13;;;;;;;7.38;5.43;;;17.50;99.90;;;;;;5053292;28;20040;-46
2023/10/01 07:02:40;;;;;;;8.15;6.00;;;17.70;99.90;;;;;;5053487;28;20080;-49
2023/10/01 07:05:06;;;;;;;9.10;5.60;;;18.20;99.90;;;;;;5053121;28;20082;-47
2023/10/01 07:07:35;;;;;;;7.35;5.95;;;18.70;99.90;;;;;;5052969;28;20025;-47
2023/10/01 07:10:02;;;;;;;14.15;6.93;;;19.10;99.90;;;;;;5052262;28;20108;-46
2023/10/01 07:12:27;;;;;;;8.38;5.75;;;19.70;99.90;;;;;;5052947;28;20096;-48
2023/10/01 07:14:53;;;;;;;6.75;4.80;;;20.40;99.90;;;;;;5052691;28;20100;-50
2023/10/01 07:17:24;;;;;;;8.05;5.50;;;21.00;99.90;;;;;;5052890;28;20064;-49
2023/10/01 07:20:00;;;;;;;11.05;6.68;;;21.40;99.90;;;;;;5053095;28;20025;-49
2023/10/01 07:22:34;;;;;;;8.00;6.75;;;21.90;99.90;;;;;;5052732;28;20499;-48
2023/10/01 07:25:05;;;;;;;12.77;7.30;;;22.00;99.80;;;;;;5052353;28;20029;-50
2023/10/01 07:27:30;;;;;;;13.45;6.97;;;22.30;99.20;;;;;;5052820;28;20021;-47
2023/10/01 07:29:58;;;;;;;10.77;7.97;;;22.40;99.10;;;;;;5052757;28;20037;-47
2023/10/01 07:32:25;;;;;;;15.77;9.05;;;22.50;98.40;;;;;;5052697;28;20031;-48
2023/10/01 07:34:58;;;;;;;11.65;8.57;;;21.90;99.10;;;;;;5052123;28;20025;-47
2023/10/01 07:37:31;;;;;;;9.65;7.47;;;21.00;99.90;;;;;;5052878;28;20052;-50
2023/10/01 07:40:08;;;;;;;9.40;7.40;;;20.00;99.90;;;;;;5052653;28;20086;-49
2023/10/01 07:42:46;;;;;;;10.23;7.78;;;18.90;99.90;;;;;;5053081;28;20387;-47
2023/10/01 07:45:16;;;;;;;13.57;8.90;;;18.10;99.90;;;;;;5052637;28;20460;-50
2023/10/01 07:47:45;;;;;;;13.27;8.75;;;17.60;99.90;;;;;;5052771;28;20506;-48
2023/10/01 07:50:13;;;;;;;15.45;9.20;;;17.10;99.90;;;;;;5052952;28;20123;-49
2023/10/01 07:52:40;;;;;;;16.60;11.57;;;16.70;99.90;;;;;;5053664;28;20025;-47
2023/10/01 07:58:16;;;;;;;14.77;9.15;;;16.20;99.90;;;;;;5053200;28;20044;-47
2023/10/01 08:00:39;;;;;;;17.48;10.52;;;15.90;99.90;;;;;;5053019;28;20112;-47
2023/10/01 08:03:48;;;;;;;18.58;10.65;;;15.80;99.90;;;;;;5052790;28;20080;-48
2023/10/01 08:06:16;;;;;;;16.83;10.57;;;15.70;99.90;;;;;;5051029;28;20035;-46
2023/10/01 08:08:47;;;;;;;15.57;11.30;;;15.70;99.90;;;;;;5051235;28;20049;-46
2023/10/01 08:13:58;;;;;;;19.08;11.57;;;15.60;99.90;;;;;;5051675;28;20024;-46
2023/10/01 08:16:24;;;;;;;19.60;12.32;;;15.50;99.90;;;;;;5052021;28;20021;-46
2023/10/01 08:18:57;;;;;;;22.88;12.55;;;15.40;99.90;;;;;;5051959;28;20040;-46
2023/10/01 08:21:30;;;;;;;18.67;11.75;;;15.40;99.90;;;;;;5051105;28;20029;-51
2023/10/01 08:23:57;;;;;;;20.65;12.20;;;15.40;99.90;;;;;;5051478;28;20051;-47
2023/10/01 08:29:07;;;;;;;22.95;13.32;;;15.40;99.90;;;;;;5051644;28;20036;-46
2023/10/01 08:31:43;;;;;;;20.73;12.93;;;15.30;99.90;;;;;;5051890;28;20016;-46
2023/10/01 08:34:23;;;;;;;25.33;14.00;;;15.30;99.90;;;;;;5051299;28;20017;-46
2023/10/01 08:36:56;;;;;;;25.17;13.80;;;15.30;99.90;;;;;;5051578;28;20021;-48
2023/10/01 08:39:47;;;;;;;26.88;13.38;;;15.30;99.90;;;;;;5051745;28;20454;-48
2023/10/01 08:42:13;;;;;;;26.67;13.38;;;15.30;99.90;;;;;;5051667;28;20032;-49
2023/10/01 08:45:05;;;;;;;18.83;12.57;;;15.30;99.90;;;;;;5051271;28;20044;-47
2023/10/01 08:47:36;;;;;;;22.35;13.73;;;15.30;99.90;;;;;;5051623;28;20025;-50
2023/10/01 08:50:29;;;;;;;23.58;12.73;;;15.30;99.90;;;;;;5051646;28;20021;-46
2023/10/01 08:52:57;;;;;;;23.35;13.15;;;15.40;99.90;;;;;;5051274;28;20017;-48
2023/10/01 09:00:56;;;;;;;16.45;11.63;;;16.50;99.90;;;;;;5052114;28;20114;-48
2023/10/01 09:03:28;;;;;;;19.17;11.90;;;18.00;99.90;;;;;;5049906;28;20021;-48
2023/10/01 09:06:04;;;;;;;13.77;9.60;;;19.50;99.90;;;;;;5051221;28;20033;-50
2023/10/01 09:08:45;;;;;;;18.85;10.57;;;20.90;99.90;;;;;;5051052;28;20072;-46
2023/10/01 09:11:15;;;;;;;19.50;10.80;;;22.20;99.90;;;;;;5051171;28;20059;-51
2023/10/01 09:16:42;;;;;;;14.45;9.40;;;23.60;99.90;;;;;;5051044;28;20032;-45
2023/10/01 09:21:55;;;;;;;13.68;9.02;;;25.20;98.30;;;;;;5051556;28;20154;-49
2023/10/01 09:24:34;;;;;;;16.27;8.98;;;25.60;97.30;;;;;;5050907;28;20048;-50
2023/10/01 09:27:25;;;;;;;20.00;10.07;;;26.10;96.50;;;;;;5051076;28;20059;-47
2023/10/01 09:32:51;;;;;;;12.65;8.80;;;26.60;95.20;;;;;;5051557;28;20115;-51
2023/10/01 09:35:30;;;;;;;16.35;9.35;;;26.30;95.50;;;;;;5055018;28;20017;-47
2023/10/01 09:38:10;;;;;;;11.25;7.95;;;26.40;95.30;;;;;;5055349;28;20021;-52
2023/10/01 09:40:43;;;;;;;15.75;9.45;;;26.20;95.40;;;;;;5055200;28;20117;-49
2023/10/01 09:43:19;;;;;;;15.52;8.65;;;25.90;95.70;;;;;;5055405;28;20023;-47
2023/10/01 09:45:46;;;;;;;13.30;7.95;;;25.60;95.80;;;;;;5055107;28;20104;-51
2023/10/01 09:48:30;;;;;;;12.55;8.07;;;25.30;96.60;;;;;;5057921;28;20021;-52
2023/10/01 09:51:11;;;;;;;15.95;8.85;;;25.10;96.80;;;;;;5056972;28;20361;-49
2023/10/01 09:54:00;;;;;;;14.65;8.60;;;24.90;97.00;;;;;;5055402;28;20032;-48
2023/10/01 09:56:26;;;;;;;14.60;9.73;;;24.60;97.40;;;;;;5055120;28;20476;-48
2023/10/01 09:59:03;;;;;;;17.13;9.43;;;24.30;97.90;;;;;;5055345;28;20407;-49
2023/10/01 10:01:33;;;;;;;15.02;8.63;;;24.20;98.30;;;;;;5054881;28;20032;-45
2023/10/01 10:04:01;;;;;;;13.88;8.40;;;24.00;98.50;;;;;;5054708;28;20033;-48
2023/10/01 10:06:27;;;;;;;16.98;9.15;;;23.70;99.00;;;;;;5054677;28;20060;-49
2023/10/01 10:09:03;;;;;;;13.07;8.73;;;23.50;98.90;;;;;;5055116;28;20029;-51
2023/10/01 10:11:30;;;;;;;15.38;8.52;;;23.50;99.00;;;;;;5054649;28;20374;-48
2023/10/01 10:14:00;;;;;;;15.00;7.07;;;23.50;99.90;;;;;;5053989;28;20092;-47
2023/10/01 10:16:30;;;;;;;16.30;8.05;;;23.60;99.80;;;;;;5054730;28;20424;-49
2023/10/01 10:19:13;;;;;;;15.65;8.25;;;23.60;99.50;;;;;;5054180;28;20043;-51
2023/10/01 10:24:30;;;;;;;13.05;8.27;;;23.10;99.80;;;;;;5054101;28;20488;-46
2023/10/01 10:26:56;;;;;;;15.35;7.53;;;22.90;99.80;;;;;;5054056;28;20032;-47
2023/10/01 10:29:23;;;;;;;13.52;8.00;;;22.80;99.90;;;;;;5054001;28;20143;-52
2023/10/01 10:32:09;;;;;;;13.38;7.85;;;22.80;99.90;;;;;;5054117;28;20021;-51
2023/10/01 10:34:36;;;;;;;12.10;7.53;;;22.80;99.90;;;;;;5053973;28;20103;-47
2023/10/01 10:37:06;;;;;;;14.40;8.02;;;22.60;99.90;;;;;;5054450;28;20404;-50
2023/10/01 10:40:02;;;;;;;13.25;7.38;;;22.60;99.90;;;;;;5054255;28;20540;-47
2023/10/01 10:42:28;;;;;;;12.52;6.72;;;22.20;99.90;;;;;;5054625;28;20104;-48
2023/10/01 10:45:21;;;;;;;15.05;8.05;;;22.00;99.90;;;;;;5052801;28;20063;-47
2023/10/01 10:48:14;;;;;;;13.15;8.18;;;21.90;99.90;;;;;;5034469;28;20029;-50
2023/10/01 10:50:56;;;;;;;16.13;8.65;;;21.60;99.90;;;;;;5034320;28;20039;-46
2023/10/01 10:53:39;;;;;;;16.08;8.25;;;21.60;99.90;;;;;;5033905;28;20026;-49
2023/10/01 10:56:07;;;;;;;35.90;23.52;;;21.50;99.90;;;;;;5033678;28;20382;-47
2023/10/01 10:58:43;;;;;;;29.33;16.75;;;21.50;99.90;;;;;;5033770;28;20044;-51
2023/10/01 11:01:16;;;;;;;41.88;27.00;;;21.50;99.90;;;;;;5033638;28;20029;-47
2023/10/01 11:03:59;;;;;;;17.30;8.30;;;21.50;99.90;;;;;;5033414;28;20493;-47
2023/10/01 11:07:01;;;;;;;13.80;7.47;;;21.40;99.90;;;;;;5033747;28;20367;-49
2023/10/01 11:09:25;;;;;;;12.13;6.88;;;21.30;99.90;;;;;;5034127;28;20521;-49
2023/10/01 11:12:05;;;;;;;15.52;7.65;;;21.30;99.90;;;;;;5034453;28;20017;-47
2023/10/01 11:14:36;;;;;;;12.38;7.15;;;21.20;99.90;;;;;;5033588;28;20440;-48
2023/10/01 11:17:01;;;;;;;11.88;7.03;;;21.10;99.90;;;;;;5032800;28;20029;-52
2023/10/01 11:19:28;;;;;;;12.38;6.35;;;21.10;99.90;;;;;;5048826;28;20036;-48
2023/10/01 11:22:00;;;;;;;11.90;6.40;;;21.10;99.90;;;;;;5053150;28;20024;-44
2023/10/01 11:24:42;;;;;;;12.68;7.07;;;21.10;99.90;;;;;;5049403;28;20029;-49
2023/10/01 11:30:13;;;;;;;13.32;7.55;;;21.00;99.90;;;;;;5030445;28;20026;-48
2023/10/01 11:35:34;;;;;;;15.15;7.20;;;20.90;99.90;;;;;;5031295;28;20079;-48
2023/10/01 11:38:03;;;;;;;16.20;7.25;;;20.80;99.90;;;;;;5032020;28;20519;-51
2023/10/01 11:41:06;;;;;;;17.60;7.80;;;20.80;99.90;;;;;;5032264;28;20040;-46
2023/10/01 11:43:27;;;;;;;13.55;7.22;;;20.80;99.90;;;;;;5032406;28;20021;-49
2023/10/01 11:46:25;;;;;;;15.05;7.50;;;20.80;99.90;;;;;;5032337;28;20386;-51
2023/10/01 11:48:56;;;;;;;14.45;7.65;;;20.80;99.90;;;;;;5032397;28;20060;-47
2023/10/01 11:51:50;;;;;;;19.08;7.88;;;20.80;99.90;;;;;;5032690;28;20036;-49
2023/10/01 11:54:25;;;;;;;15.65;6.60;;;20.90;99.90;;;;;;5031435;28;20026;-50
2023/10/01 11:57:07;;;;;;;16.25;7.80;;;20.80;99.90;;;;;;5032033;28;20448;-47
2023/10/01 11:59:36;;;;;;;13.88;7.28;;;20.90;99.90;;;;;;5032670;28;20033;-49
2023/10/01 12:02:20;;;;;;;14.98;8.10;;;20.90;99.90;;;;;;5032227;28;20022;-47
2023/10/01 12:04:59;;;;;;;42.50;26.00;;;20.90;99.90;;;;;;5032197;28;20104;-49
2023/10/01 12:07:32;;;;;;;16.45;8.75;;;20.90;99.90;;;;;;5032140;28;20410;-46
2023/10/01 12:10:05;;;;;;;15.65;7.95;;;21.00;99.90;;;;;;5032307;28;20056;-48
2023/10/01 12:12:39;;;;;;;19.17;8.40;;;21.00;99.90;;;;;;5032223;28;20026;-50
2023/10/01 12:17:53;;;;;;;14.63;6.93;;;21.00;99.90;;;;;;5032341;28;20340;-47
2023/10/01 12:20:22;;;;;;;15.02;7.55;;;21.00;99.90;;;;;;5031971;28;20029;-46
2023/10/01 12:23:10;;;;;;;12.75;7.65;;;21.10;99.90;;;;;;5032068;28;20087;-46
2023/10/01 12:28:27;;;;;;;11.20;6.97;;;21.20;99.90;;;;;;5031760;28;20481;-49
2023/10/01 12:31:01;;;;;;;13.48;7.10;;;21.20;99.90;;;;;;5032036;28;20025;-44
2023/10/01 12:33:38;;;;;;;13.82;7.35;;;21.20;99.90;;;;;;5031657;28;20017;-49
2023/10/01 12:36:11;;;;;;;13.68;7.90;;;21.30;99.90;;;;;;5031333;28;20117;-46
2023/10/01 12:38:39;;;;;;;15.10;7.68;;;21.30;99.90;;;;;;5031678;28;20040;-49
2023/10/01 12:41:05;;;;;;;12.25;7.28;;;21.30;99.90;;;;;;5031776;28;20392;-47
2023/10/01 12:43:37;;;;;;;14.05;7.30;;;21.30;99.90;;;;;;5031749;28;20049;-47
2023/10/01 12:46:08;;;;;;;12.60;7.35;;;21.30;99.90;;;;;;5031400;28;20040;-48
2023/10/01 12:48:34;;;;;;;14.55;7.70;;;21.30;99.90;;;;;;5031474;28;20505;-48
2023/10/01 12:51:00;;;;;;;19.50;9.40;;;21.50;99.90;;;;;;5031532;28;20014;-48
2023/10/01 12:53:47;;;;;;;16.38;8.45;;;21.50;99.90;;;;;;5031296;28;20021;-48
2023/10/01 12:56:13;;;;;;;17.23;8.00;;;21.50;99.90;;;;;;5031154;28;20129;-47
2023/10/01 12:58:39;;;;;;;15.40;7.97;;;21.50;99.90;;;;;;5031347;28;20517;-46
2023/10/01 13:01:23;;;;;;;11.10;6.60;;;21.60;99.90;;;;;;5031242;28;20107;-44
2023/10/01 13:03:52;;;;;;;18.27;8.70;;;21.50;99.90;;;;;;5031252;28;20558;-49
2023/10/01 13:06:18;;;;;;;13.63;7.65;;;21.50;99.90;;;;;;5031375;28;20045;-50
2023/10/01 13:08:44;;;;;;;16.02;7.88;;;21.60;99.90;;;;;;5033009;28;20034;-45
2023/10/01 13:11:50;;;;;;;15.77;8.00;;;21.60;99.90;;;;;;5035582;28;20477;-48
2023/10/01 13:13:55;;;;;;;14.45;7.97;;;21.60;99.90;;;;;;5035182;28;20063;-48
2023/10/01 13:16:21;;;;;;;14.07;8.35;;;21.60;99.90;;;;;;5035443;28;20095;-48
2023/10/01 13:18:46;;;;;;;12.38;7.68;;;21.60;99.90;;;;;;5035722;28;20501;-48
2023/10/01 13:21:12;;;;;;;12.15;6.65;;;21.60;99.90;;;;;;5035501;28;20117;-49
2023/10/01 13:23:44;;;;;;;16.02;8.05;;;21.60;99.90;;;;;;5035303;28;20423;-49
2023/10/01 13:26:24;;;;;;;17.05;8.75;;;21.70;99.90;;;;;;5035389;28;20041;-47
2023/10/01 13:28:51;;;;;;;19.02;8.68;;;21.80;99.90;;;;;;5035224;28;20025;-47
2023/10/01 14:13:06;;;;;;;16.58;8.18;;;22.10;99.90;;;;;;5034377;28;20080;-47
2023/10/01 14:15:21;;;;;;;13.05;7.55;;;22.10;99.90;;;;;;5029868;28;20037;-47
2023/10/01 14:17:53;;;;;;;12.18;7.25;;;22.10;99.90;;;;;;5034235;28;20018;-47
2023/10/01 14:20:37;;;;;;;15.63;8.27;;;22.10;99.90;;;;;;5034006;28;20029;-46
2023/10/01 14:23:07;;;;;;;13.90;7.75;;;22.10;99.90;;;;;;5034090;28;20230;-48
2023/10/01 14:25:52;;;;;;;13.02;7.50;;;22.20;99.90;;;;;;5033785;28;20040;-50
2023/10/01 14:28:19;;;;;;;14.85;8.00;;;22.10;99.90;;;;;;5034054;28;20030;-47
2023/10/01 14:30:50;;;;;;;17.63;7.47;;;22.20;99.90;;;;;;5036182;28;20104;-48
2023/10/01 14:33:25;;;;;;;14.88;7.47;;;22.20;99.90;;;;;;5030658;28;20025;-46
2023/10/01 14:35:54;;;;;;;12.52;7.05;;;22.20;99.90;;;;;;5030688;28;20045;-52
2023/10/01 14:38:42;;;;;;;16.83;7.10;;;22.20;99.90;;;;;;5032567;28;20030;-46
2023/10/01 14:41:15;;;;;;;15.13;7.45;;;22.20;99.90;;;;;;5032687;28;20040;-46
2023/10/01 14:43:48;;;;;;;13.52;8.05;;;22.20;99.90;;;;;;5033226;28;20112;-49
2023/10/01 14:46:17;;;;;;;16.10;7.82;;;22.20;99.90;;;;;;5033404;28;20029;-47
2023/10/01 14:48:46;;;;;;;14.77;7.43;;;22.20;99.90;;;;;;5033427;28;20026;-46
2023/10/01 14:51:25;;;;;;;13.05;8.05;;;22.20;99.90;;;;;;5033475;28;20105;-48
2023/10/01 14:53:54;;;;;;;14.90;7.75;;;22.20;99.90;;;;;;5033228;28;20093;-47